Oriana — ZCDU9 — position and weather

sailwx.info

Track history (hours):
 
Tides and Currents Weather Stations Pressure Air Temp Water Temp Dewpoint Dewpoint Depression Visibility Wind Speed Wind Dir Waves Ship Positions

Oriana (Bermuda)

Last reported at 2019-Apr-24 21:58 UTC. Time now 2019-Apr-24 22:25 UTC.
Position N 49°57' W 002°23'.

Length 261 m; beam 32.2 m; draft 8.2 m.

Type: Ship. MMSI: 310529000.

Date/timePositionNaut miles runAvg speedWind from/ knotsBaromVisibWave heightAir tempDewpointWater temp
2019-Apr-24 21:58N 49°57' W 002°23'613.0
2019-Apr-24 21:30N 49°55' W 002°32'612.7
2019-Apr-24 21:00N 49°53' W 002°42'612.3
2019-Apr-24 20:30N 49°51' W 002°51'612.0
2019-Apr-24 20:00N 49°49' W 002°59'612.7
2019-Apr-24 19:31N 49°44' W 003°06'815.8
2019-Apr-24 19:01N 49°39' W 003°16'816.3
2019-Apr-24 18:31N 49°34' W 003°25'815.9
2019-Apr-24 18:01N 49°29' W 003°35'816.0
2019-Apr-24 17:30N 49°23' W 003°44'815.8
2019-Apr-24 16:59N 49°19' W 003°54'4315.5
2019-Apr-24 14:12N 48°53' W 004°47'514.9
2019-Apr-24 13:52N 48°50' W 004°53'614.3
2019-Apr-24 13:29N 48°47' W 005°00'613.6
2019-Apr-24 13:00N 48°43' W 005°08'713.4
2019-Apr-24 12:30N 48°38' W 005°15'713.7
2019-Apr-24 12:00N 48°33' W 005°22'4271.3
2019-Apr-24 12:00N 48°30' W 005°18'715.2 180 / 22993.027.0 12.8 7.011.0
2019-Apr-24 11:30N 48°28' W 005°29'1214.1
2019-Apr-24 10:38N 48°17' W 005°38'19817.0
2019-Apr-23 23:00N 45°24' W 008°00'16916.9 240 / 21995.410.8 12.0 5.613.0
2019-Apr-23 13:00N 42°54' W 009°48'16214.7 270 / 35996.727.0 13.0 4.213.0
2019-Apr-23 02:00N 40°12' W 009°48'4716.0 270 / 40996.110.8 11.5 7.414.0
2019-Apr-22 23:03N 39°25' W 009°51'115.3
2019-Apr-22 23:00N 39°24' W 009°51'714.8
2019-Apr-22 22:30N 39°17' W 009°50'714.2
2019-Apr-22 22:00N 39°10' W 009°48'714.4
2019-Apr-22 21:30N 39°03' W 009°46'714.4
2019-Apr-22 21:00N 38°56' W 009°44'714.1
2019-Apr-22 20:31N 38°49' W 009°43'714.1
2019-Apr-22 20:00N 38°42' W 009°42'612.5
2019-Apr-22 19:30N 38°37' W 009°38'714.4
2019-Apr-22 19:00N 38°37' W 009°29'713.4
2019-Apr-22 18:30N 38°39' W 009°20'710.9
2019-Apr-22 17:52N 38°41' W 009°12'3 9.6
2019-Apr-22 17:30N 38°42' W 009°08'0 0.8
2019-Apr-22 16:59N 38°43' W 009°08'0 0.0
2019-Apr-22 16:31N 38°43' W 009°08'0 0.0
2019-Apr-22 16:00N 38°43' W 009°08'0 0.0
2019-Apr-22 15:27N 38°43' W 009°08'0 0.0
2019-Apr-22 15:00N 38°43' W 009°08'0 0.0
2019-Apr-22 14:30N 38°43' W 009°08'0 0.0
2019-Apr-22 14:00N 38°43' W 009°08'0 0.0
2019-Apr-22 13:30N 38°43' W 009°08'0 0.0
2019-Apr-22 12:59N 38°43' W 009°08'0 0.0
2019-Apr-22 12:29N 38°43' W 009°08'0 0.0
2019-Apr-22 11:59N 38°43' W 009°08'0 0.0
2019-Apr-22 11:28N 38°43' W 009°08'0 0.0
2019-Apr-22 10:58N 38°43' W 009°08'0 0.0
2019-Apr-22 10:28N 38°43' W 009°08'0 0.0
2019-Apr-22 09:58N 38°43' W 009°08'0 0.0
2019-Apr-22 09:28N 38°43' W 009°08'0 0.0
2019-Apr-22 08:52N 38°43' W 009°08'0 0.0
2019-Apr-22 08:28N 38°43' W 009°08'0 0.0
2019-Apr-22 08:00N 38°43' W 009°08'0 0.7
2019-Apr-22 07:30N 38°42' W 009°08'4 7.7
2019-Apr-22 07:00N 38°41' W 009°13'5 9.6
2019-Apr-22 06:30N 38°40' W 009°19'611.8
2019-Apr-22 06:01N 38°36' W 009°24'714.0
2019-Apr-22 05:31N 38°29' W 009°23'816.5
2019-Apr-22 05:00N 38°21' W 009°23'816.9
2019-Apr-22 04:31N 38°12' W 009°23'816.9
2019-Apr-22 04:01N 38°04' W 009°23'816.9
2019-Apr-22 03:31N 37°55' W 009°23'917.0
2019-Apr-22 03:01N 37°47' W 009°22'917.3
2019-Apr-22 02:30N 37°38' W 009°22'917.1
2019-Apr-22 02:01N 37°30' W 009°22'816.3
2019-Apr-22 01:30N 37°21' W 009°22'816.2
2019-Apr-22 01:00N 37°13' W 009°22'917.1
2019-Apr-22 00:30N 37°05' W 009°22'917.4
2019-Apr-22 00:00N 36°56' W 009°21'4275.0
2019-Apr-22 00:00N 37°00' W 009°18'3118.7 320 / 221011.027.0 16.213.216.0
2019-Apr-21 22:20N 36°39' W 008°49'1546.0
2019-Apr-21 22:00N 36°36' W 008°30'522.3 330 / 231008.110.8 16.513.917.0
2019-Apr-21 21:46N 36°36' W 008°36'162 8.2
2019-Apr-21 02:00N 36°06' W 005°18'196 5.3 100 / 51011.327.0 15.513.715.0
2019-Apr-19 13:00N 36°36' W 001°18'14311.9 180 / 161015.427.0 14.810.416.0
2019-Apr-19 01:00N 37°54' E 001°12'20115.5 290 / 101015.310.8 16.214.616.0
2019-Apr-18 12:00N 39°36' E 004°54'18714.7 100 / 281016.710.8 17.012.515.0
2019-Apr-17 23:14N 41°14' E 008°24'414.9
2019-Apr-17 22:59N 41°15' E 008°29'96 4.2
2019-Apr-17 00:00N 41°18' E 010°36'30 9.9 220 / 41021.310.8 14.310.915.0
2019-Apr-16 21:00N 41°30' E 011°12'46 2.3 360 / 61021.010.8 15.0 9.215.0
2019-Apr-16 01:26N 42°09' E 010°41'1621.0
2019-Apr-16 00:41N 42°12' E 010°20'421.0
2019-Apr-16 00:30N 42°13' E 010°15'1920.7
2019-Apr-15 23:35N 42°21' E 009°51'321.3
2019-Apr-15 23:28N 42°23' E 009°50'2021.2
2019-Apr-15 22:32N 42°42' E 009°43'021.5
2019-Apr-15 22:31N 42°42' E 009°42'1121.3
2019-Apr-15 22:00N 42°53' E 009°38'1121.1
2019-Apr-15 21:31N 43°03' E 009°35'1121.5
2019-Apr-15 21:01N 43°14' E 009°33'1121.2
2019-Apr-15 20:31N 43°24' E 009°31'1121.5
2019-Apr-15 20:00N 43°34' E 009°36'1121.5
2019-Apr-15 19:31N 43°44' E 009°42'1121.4
2019-Apr-15 19:01N 43°54' E 009°49'1019.5
2019-Apr-15 18:31N 44°03' E 009°52'4 7.1
2019-Apr-15 18:00N 44°06' E 009°50'0 0.0
2019-Apr-15 17:29N 44°06' E 009°50'0 0.0
2019-Apr-15 16:58N 44°06' E 009°50'0 0.0
2019-Apr-15 16:28N 44°06' E 009°50'0 0.0
2019-Apr-15 15:58N 44°06' E 009°50'0 0.0
2019-Apr-15 15:30N 44°06' E 009°50'0 0.0
2019-Apr-15 15:00N 44°06' E 009°50'0 0.0
2019-Apr-15 14:30N 44°06' E 009°50'0 0.0
2019-Apr-15 14:00N 44°06' E 009°50'0 0.0
2019-Apr-15 13:30N 44°06' E 009°50'0 0.0
2019-Apr-15 13:00N 44°06' E 009°50'0 0.0
2019-Apr-15 12:30N 44°06' E 009°50'0 0.0
2019-Apr-15 12:00N 44°06' E 009°50'0 0.0
2019-Apr-15 11:30N 44°06' E 009°50'0 0.0
2019-Apr-15 11:00N 44°06' E 009°50'0 0.0
2019-Apr-15 10:30N 44°06' E 009°50'0 0.0
2019-Apr-15 10:00N 44°06' E 009°50'0 0.0
2019-Apr-15 09:30N 44°06' E 009°50'0 0.0
2019-Apr-15 08:57N 44°06' E 009°50'0 0.0
2019-Apr-15 08:30N 44°06' E 009°50'0 0.0
2019-Apr-15 08:00N 44°06' E 009°50'0 0.0
2019-Apr-15 07:29N 44°06' E 009°50'0 0.0
2019-Apr-15 06:59N 44°06' E 009°50'0 0.0
2019-Apr-15 06:29N 44°06' E 009°50'0 0.0
2019-Apr-15 05:59N 44°06' E 009°50'0 0.0
2019-Apr-15 05:29N 44°06' E 009°50'0 0.0
2019-Apr-15 04:59N 44°06' E 009°50'0 0.0
2019-Apr-15 04:30N 44°06' E 009°50'0 0.7
2019-Apr-15 04:00N 44°06' E 009°50'3 6.5
2019-Apr-15 03:30N 44°03' E 009°52'611.9
2019-Apr-15 03:00N 43°58' E 009°55'815.8
2019-Apr-15 02:30N 43°52' E 009°48'714.8
2019-Apr-15 02:00N 43°49' E 009°38'611.0
2019-Apr-15 01:30N 43°48' E 009°31'510.7
2019-Apr-15 01:00N 43°45' E 009°25'611.3
2019-Apr-15 00:30N 43°40' E 009°22'611.3
2019-Apr-15 00:00N 43°34' E 009°20'611.1
2019-Apr-14 23:30N 43°29' E 009°17'611.4
2019-Apr-14 23:00N 43°24' E 009°15'510.6
2019-Apr-14 22:30N 43°21' E 009°09'510.8
2019-Apr-14 22:00N 43°19' E 009°02'  
Track history (hours):
 
Tides and Currents Weather Stations Pressure Air Temp Water Temp Dewpoint Dewpoint Depression Visibility Wind Speed Wind Dir Waves Ship Positions

Oriana (Bermuda)

Last reported at 2019-Apr-24 21:58 UTC. Time now 2019-Apr-24 22:25 UTC.
Position N 49°57' W 002°23'.

Length 261 m; beam 32.2 m; draft 8.2 m.

Type: Ship. MMSI: 310529000.

Date/timePositionNaut miles runAvg speedWind from/ knotsBaromVisibWave heightAir tempDewpointWater temp
2019-Apr-24 21:58N 49°57' W 002°23'613.0
2019-Apr-24 21:30N 49°55' W 002°32'612.7
2019-Apr-24 21:00N 49°53' W 002°42'612.3
2019-Apr-24 20:30N 49°51' W 002°51'612.0
2019-Apr-24 20:00N 49°49' W 002°59'612.7
2019-Apr-24 19:31N 49°44' W 003°06'815.8
2019-Apr-24 19:01N 49°39' W 003°16'816.3
2019-Apr-24 18:31N 49°34' W 003°25'815.9
2019-Apr-24 18:01N 49°29' W 003°35'816.0
2019-Apr-24 17:30N 49°23' W 003°44'815.8
2019-Apr-24 16:59N 49°19' W 003°54'4315.5
2019-Apr-24 14:12N 48°53' W 004°47'514.9
2019-Apr-24 13:52N 48°50' W 004°53'614.3
2019-Apr-24 13:29N 48°47' W 005°00'613.6
2019-Apr-24 13:00N 48°43' W 005°08'713.4
2019-Apr-24 12:30N 48°38' W 005°15'713.7
2019-Apr-24 12:00N 48°33' W 005°22'4271.3
2019-Apr-24 12:00N 48°30' W 005°18'715.2 180 / 22993.027.0 12.8 7.011.0
2019-Apr-24 11:30N 48°28' W 005°29'1214.1
2019-Apr-24 10:38N 48°17' W 005°38'19817.0
2019-Apr-23 23:00N 45°24' W 008°00'16916.9 240 / 21995.410.8 12.0 5.613.0
2019-Apr-23 13:00N 42°54' W 009°48'16214.7 270 / 35996.727.0 13.0 4.213.0
2019-Apr-23 02:00N 40°12' W 009°48'4716.0 270 / 40996.110.8 11.5 7.414.0
2019-Apr-22 23:03N 39°25' W 009°51'115.3
2019-Apr-22 23:00N 39°24' W 009°51'714.8
2019-Apr-22 22:30N 39°17' W 009°50'714.2
2019-Apr-22 22:00N 39°10' W 009°48'714.4
2019-Apr-22 21:30N 39°03' W 009°46'714.4
2019-Apr-22 21:00N 38°56' W 009°44'714.1
2019-Apr-22 20:31N 38°49' W 009°43'714.1
2019-Apr-22 20:00N 38°42' W 009°42'612.5
2019-Apr-22 19:30N 38°37' W 009°38'714.4
2019-Apr-22 19:00N 38°37' W 009°29'713.4
2019-Apr-22 18:30N 38°39' W 009°20'710.9
2019-Apr-22 17:52N 38°41' W 009°12'3 9.6
2019-Apr-22 17:30N 38°42' W 009°08'0 0.8
2019-Apr-22 16:59N 38°43' W 009°08'0 0.0
2019-Apr-22 16:31N 38°43' W 009°08'0 0.0
2019-Apr-22 16:00N 38°43' W 009°08'0 0.0
2019-Apr-22 15:27N 38°43' W 009°08'0 0.0
2019-Apr-22 15:00N 38°43' W 009°08'0 0.0
2019-Apr-22 14:30N 38°43' W 009°08'0 0.0
2019-Apr-22 14:00N 38°43' W 009°08'0 0.0
2019-Apr-22 13:30N 38°43' W 009°08'0 0.0
2019-Apr-22 12:59N 38°43' W 009°08'0 0.0
2019-Apr-22 12:29N 38°43' W 009°08'0 0.0
2019-Apr-22 11:59N 38°43' W 009°08'0 0.0
2019-Apr-22 11:28N 38°43' W 009°08'0 0.0
2019-Apr-22 10:58N 38°43' W 009°08'0 0.0
2019-Apr-22 10:28N 38°43' W 009°08'0 0.0
2019-Apr-22 09:58N 38°43' W 009°08'0 0.0
2019-Apr-22 09:28N 38°43' W 009°08'0 0.0
2019-Apr-22 08:52N 38°43' W 009°08'0 0.0
2019-Apr-22 08:28N 38°43' W 009°08'0 0.0
2019-Apr-22 08:00N 38°43' W 009°08'0 0.7
2019-Apr-22 07:30N 38°42' W 009°08'4 7.7
2019-Apr-22 07:00N 38°41' W 009°13'5 9.6
2019-Apr-22 06:30N 38°40' W 009°19'611.8
2019-Apr-22 06:01N 38°36' W 009°24'714.0
2019-Apr-22 05:31N 38°29' W 009°23'816.5
2019-Apr-22 05:00N 38°21' W 009°23'816.9
2019-Apr-22 04:31N 38°12' W 009°23'816.9
2019-Apr-22 04:01N 38°04' W 009°23'816.9
2019-Apr-22 03:31N 37°55' W 009°23'917.0
2019-Apr-22 03:01N 37°47' W 009°22'917.3
2019-Apr-22 02:30N 37°38' W 009°22'917.1
2019-Apr-22 02:01N 37°30' W 009°22'816.3
2019-Apr-22 01:30N 37°21' W 009°22'816.2
2019-Apr-22 01:00N 37°13' W 009°22'917.1
2019-Apr-22 00:30N 37°05' W 009°22'917.4
2019-Apr-22 00:00N 36°56' W 009°21'4275.0
2019-Apr-22 00:00N 37°00' W 009°18'3118.7 320 / 221011.027.0 16.213.216.0
2019-Apr-21 22:20N 36°39' W 008°49'1546.0
2019-Apr-21 22:00N 36°36' W 008°30'522.3 330 / 231008.110.8 16.513.917.0
2019-Apr-21 21:46N 36°36' W 008°36'162 8.2
2019-Apr-21 02:00N 36°06' W 005°18'196 5.3 100 / 51011.327.0 15.513.715.0
2019-Apr-19 13:00N 36°36' W 001°18'14311.9 180 / 161015.427.0 14.810.416.0
2019-Apr-19 01:00N 37°54' E 001°12'20115.5 290 / 101015.310.8 16.214.616.0
2019-Apr-18 12:00N 39°36' E 004°54'18714.7 100 / 281016.710.8 17.012.515.0
2019-Apr-17 23:14N 41°14' E 008°24'414.9
2019-Apr-17 22:59N 41°15' E 008°29'96 4.2
2019-Apr-17 00:00N 41°18' E 010°36'30 9.9 220 / 41021.310.8 14.310.915.0
2019-Apr-16 21:00N 41°30' E 011°12'46 2.3 360 / 61021.010.8 15.0 9.215.0
2019-Apr-16 01:26N 42°09' E 010°41'1621.0
2019-Apr-16 00:41N 42°12' E 010°20'421.0
2019-Apr-16 00:30N 42°13' E 010°15'1920.7
2019-Apr-15 23:35N 42°21' E 009°51'321.3
2019-Apr-15 23:28N 42°23' E 009°50'2021.2
2019-Apr-15 22:32N 42°42' E 009°43'021.5
2019-Apr-15 22:31N 42°42' E 009°42'1121.3
2019-Apr-15 22:00N 42°53' E 009°38'1121.1
2019-Apr-15 21:31N 43°03' E 009°35'1121.5
2019-Apr-15 21:01N 43°14' E 009°33'1121.2
2019-Apr-15 20:31N 43°24' E 009°31'1121.5
2019-Apr-15 20:00N 43°34' E 009°36'1121.5
2019-Apr-15 19:31N 43°44' E 009°42'1121.4
2019-Apr-15 19:01N 43°54' E 009°49'1019.5
2019-Apr-15 18:31N 44°03' E 009°52'4 7.1
2019-Apr-15 18:00N 44°06' E 009°50'0 0.0
2019-Apr-15 17:29N 44°06' E 009°50'0 0.0
2019-Apr-15 16:58N 44°06' E 009°50'0 0.0
2019-Apr-15 16:28N 44°06' E 009°50'0 0.0
2019-Apr-15 15:58N 44°06' E 009°50'0 0.0
2019-Apr-15 15:30N 44°06' E 009°50'0 0.0
2019-Apr-15 15:00N 44°06' E 009°50'0 0.0
2019-Apr-15 14:30N 44°06' E 009°50'0 0.0
2019-Apr-15 14:00N 44°06' E 009°50'0 0.0
2019-Apr-15 13:30N 44°06' E 009°50'0 0.0
2019-Apr-15 13:00N 44°06' E 009°50'0 0.0
2019-Apr-15 12:30N 44°06' E 009°50'0 0.0
2019-Apr-15 12:00N 44°06' E 009°50'0 0.0
2019-Apr-15 11:30N 44°06' E 009°50'0 0.0
2019-Apr-15 11:00N 44°06' E 009°50'0 0.0
2019-Apr-15 10:30N 44°06' E 009°50'0 0.0
2019-Apr-15 10:00N 44°06' E 009°50'0 0.0
2019-Apr-15 09:30N 44°06' E 009°50'0 0.0
2019-Apr-15 08:57N 44°06' E 009°50'0 0.0
2019-Apr-15 08:30N 44°06' E 009°50'0 0.0
2019-Apr-15 08:00N 44°06' E 009°50'0 0.0
2019-Apr-15 07:29N 44°06' E 009°50'0 0.0
2019-Apr-15 06:59N 44°06' E 009°50'0 0.0
2019-Apr-15 06:29N 44°06' E 009°50'0 0.0
2019-Apr-15 05:59N 44°06' E 009°50'0 0.0
2019-Apr-15 05:29N 44°06' E 009°50'0 0.0
2019-Apr-15 04:59N 44°06' E 009°50'0 0.0
2019-Apr-15 04:30N 44°06' E 009°50'0 0.7
2019-Apr-15 04:00N 44°06' E 009°50'3 6.5
2019-Apr-15 03:30N 44°03' E 009°52'611.9
2019-Apr-15 03:00N 43°58' E 009°55'815.8
2019-Apr-15 02:30N 43°52' E 009°48'714.8
2019-Apr-15 02:00N 43°49' E 009°38'611.0
2019-Apr-15 01:30N 43°48' E 009°31'510.7
2019-Apr-15 01:00N 43°45' E 009°25'611.3
2019-Apr-15 00:30N 43°40' E 009°22'611.3
2019-Apr-15 00:00N 43°34' E 009°20'611.1
2019-Apr-14 23:30N 43°29' E 009°17'611.4
2019-Apr-14 23:00N 43°24' E 009°15'510.6
2019-Apr-14 22:30N 43°21' E 009°09'510.8
2019-Apr-14 22:00N 43°19' E 009°02'  

Dump ship's entire track history